Time;durP1;ratioP1;P1;durP2;ratioP2;P2;SDS_P1;SDS_P2;PMS_P1;PMS_P2;Temp;Humidity;BMP_temperature;BMP_pressure;BME280_temperature;BME280_humidity;BME280_pressure;Samples;Min_cycle;Max_cycle;Signal;HPM_P1;HPM_P2
2023/05/05 00:00:03;;;;;;;6.18;1.30;;;;;;;18.18;60.14;101155.38;5057959;28;20064;-63
2023/05/05 00:02:51;;;;;;;7.20;1.42;;;;;;;17.98;62.00;101154.38;5064115;28;20419;-64
2023/05/05 00:05:39;;;;;;;5.97;1.60;;;;;;;18.17;61.53;101150.13;5062929;28;20050;-65
2023/05/05 00:08:27;;;;;;;4.95;1.25;;;;;;;18.44;61.09;101143.78;5069697;28;20048;-65
2023/05/05 00:11:14;;;;;;;6.50;1.52;;;;;;;18.28;60.21;101135.34;5076250;28;20064;-65
2023/05/05 00:14:02;;;;;;;6.95;1.30;;;;;;;18.64;61.20;101132.41;5046508;28;20063;-64
2023/05/05 00:16:49;;;;;;;4.15;1.15;;;;;;;18.44;60.19;101133.44;5070410;28;20135;-65
2023/05/05 00:19:37;;;;;;;7.20;1.60;;;;;;;18.56;60.76;101138.97;5074261;28;20052;-64
2023/05/05 00:22:25;;;;;;;4.85;1.27;;;;;;;18.48;61.12;101144.72;5080551;28;20056;-64
2023/05/05 00:25:12;;;;;;;5.65;1.48;;;;;;;18.12;61.23;101147.59;5074523;28;20060;-65
2023/05/05 00:28:00;;;;;;;4.35;1.50;;;;;;;17.62;62.89;101146.09;5084539;28;20055;-65
2023/05/05 00:30:47;;;;;;;5.68;1.13;;;;;;;17.54;63.78;101135.09;5055027;28;20064;-64
2023/05/05 00:33:35;;;;;;;7.03;1.40;;;;;;;17.45;63.74;101134.34;5054050;28;20420;-65
2023/05/05 00:36:22;;;;;;;6.38;1.20;;;;;;;17.49;64.69;101127.75;5072633;28;20506;-65
2023/05/05 00:39:10;;;;;;;8.00;1.80;;;;;;;17.74;64.22;101122.97;5058828;28;20052;-65
2023/05/05 00:41:58;;;;;;;7.47;1.92;;;;;;;17.69;64.79;101128.78;5052931;28;20052;-65
2023/05/05 00:44:45;;;;;;;6.72;1.45;;;;;;;17.61;63.80;101127.75;5058445;28;20155;-65
2023/05/05 00:47:33;;;;;;;8.18;1.45;;;;;;;17.39;64.42;101131.00;5073586;28;20044;-64
2023/05/05 00:50:22;;;;;;;7.78;1.58;;;;;;;17.64;64.63;101138.19;5074234;28;20484;-64
2023/05/05 00:53:10;;;;;;;8.63;1.60;;;;;;;17.54;64.08;101138.66;5074026;28;20053;-65
2023/05/05 00:55:58;;;;;;;8.10;1.33;;;;;;;17.40;65.54;101146.53;5057783;28;20067;-65
2023/05/05 00:58:46;;;;;;;10.18;1.50;;;;;;;17.19;65.73;101151.41;5053693;28;20052;-65
2023/05/05 01:01:35;;;;;;;6.60;1.48;;;;;;;17.04;66.68;101151.25;5036328;28;20590;-65
2023/05/05 01:04:23;;;;;;;7.63;1.33;;;;;;;17.16;67.46;101142.91;5058100;28;20063;-65
2023/05/05 01:07:32;;;;;;;5.80;1.48;;;;;;;17.15;66.28;101142.13;5059851;28;20052;-66
2023/05/05 01:10:34;;;;;;;6.72;1.48;;;;;;;17.24;66.89;101145.63;5039792;28;20060;-65
2023/05/05 01:13:34;;;;;;;9.23;1.77;;;;;;;17.17;67.86;101139.81;5070404;28;20057;-66
2023/05/05 01:16:33;;;;;;;10.90;1.65;;;;;;;17.52;67.64;101149.34;5077835;28;20048;-65
2023/05/05 01:19:39;;;;;;;11.27;1.60;;;;;;;17.44;66.54;101141.06;5053006;28;20408;-64
2023/05/05 01:22:35;;;;;;;10.93;1.45;;;;;;;17.27;68.05;101132.97;5093393;28;20044;-65
2023/05/05 01:25:52;;;;;;;8.55;1.40;;;;;;;17.16;67.05;101123.44;5060058;28;20048;-65
2023/05/05 01:29:21;;;;;;;8.73;1.67;;;;;;;17.49;67.45;101124.97;5099458;28;20047;-65
2023/05/05 01:32:12;;;;;;;10.15;1.92;;;;;;;17.68;67.67;101118.78;5075542;28;20045;-65
2023/05/05 01:35:18;;;;;;;8.48;2.03;;;;;;;17.69;66.55;101123.22;5066018;28;20444;-65
2023/05/05 01:38:37;;;;;;;9.52;2.38;;;;;;;17.75;67.37;101119.81;5059382;28;20045;-65
2023/05/05 01:41:29;;;;;;;8.82;1.60;;;;;;;17.55;66.43;101106.88;5058135;28;20060;-66
2023/05/05 01:44:18;;;;;;;9.68;1.70;;;;;;;17.30;67.82;101096.06;5089011;28;20064;-65
2023/05/05 01:47:06;;;;;;;11.95;2.10;;;;;;;17.36;67.72;101097.47;5065393;28;20052;-64
2023/05/05 01:49:54;;;;;;;11.90;2.00;;;;;;;17.42;68.15;101098.84;5064361;28;20056;-64
2023/05/05 01:52:43;;;;;;;8.88;2.25;;;;;;;17.38;68.77;101104.28;5058644;28;20052;-65
2023/05/05 01:55:31;;;;;;;10.75;1.77;;;;;;;17.24;68.72;101111.41;5082365;28;20063;-65
2023/05/05 01:58:20;;;;;;;9.27;1.60;;;;;;;17.67;68.26;101118.00;5093731;28;20055;-65
2023/05/05 02:01:09;;;;;;;13.00;2.67;;;;;;;17.59;67.59;101118.13;5064545;28;20047;-65
2023/05/05 02:03:57;;;;;;;9.02;1.83;;;;;;;17.68;67.74;101113.22;5064405;28;20056;-65
2023/05/05 02:06:51;;;;;;;7.95;1.98;;;;;;;17.76;67.42;101113.09;5057878;28;20076;-65
2023/05/05 02:09:39;;;;;;;6.03;2.00;;;;;;;17.67;67.95;101114.38;5063788;28;20071;-65
2023/05/05 02:12:28;;;;;;;11.57;1.80;;;;;;;17.88;66.79;101110.28;5064140;28;20507;-65
2023/05/05 02:15:17;;;;;;;10.43;2.13;;;;;;;17.51;67.52;101107.91;5059084;28;20048;-65
2023/05/05 02:18:06;;;;;;;10.95;1.98;;;;;;;17.76;67.49;101110.31;5071691;28;20350;-65
2023/05/05 02:20:53;;;;;;;8.25;1.63;;;;;;;18.11;65.78;101129.25;5075373;28;20056;-65
2023/05/05 02:23:41;;;;;;;9.27;1.92;;;;;;;17.71;67.20;101127.25;5091684;28;20048;-65
2023/05/05 02:26:31;;;;;;;11.52;2.13;;;;;;;17.78;67.29;101137.81;5092393;28;20067;-65
2023/05/05 02:29:22;;;;;;;10.75;2.40;;;;;;;18.03;66.77;101139.38;5086283;28;20040;-65
2023/05/05 02:32:17;;;;;;;10.38;2.15;;;;;;;18.13;66.00;101141.69;5063794;28;20048;-65
2023/05/05 02:35:13;;;;;;;7.68;1.88;;;;;;;17.81;67.18;101131.53;5077482;28;20059;-64
2023/05/05 02:38:04;;;;;;;9.32;1.63;;;;;;;17.50;68.51;101137.75;5065446;28;20052;-65
2023/05/05 02:40:59;;;;;;;10.43;1.92;;;;;;;17.81;68.10;101137.94;5064306;28;20055;-64
2023/05/05 02:43:48;;;;;;;7.60;1.67;;;;;;;17.87;67.90;101128.16;5076464;28;20051;-64
2023/05/05 02:46:37;;;;;;;11.20;2.00;;;;;;;17.72;68.28;101126.09;5074264;28;20048;-65
2023/05/05 02:49:25;;;;;;;12.43;2.10;;;;;;;17.53;68.04;101130.66;5071582;28;20049;-65
2023/05/05 02:52:18;;;;;;;8.50;2.00;;;;;;;17.60;68.81;101133.66;5057102;28;20052;-64
2023/05/05 02:55:07;;;;;;;12.43;1.88;;;;;;;17.63;69.00;101128.22;5065086;28;20048;-65
2023/05/05 02:57:59;;;;;;;10.63;2.08;;;;;;;17.83;68.59;101130.03;5064326;28;20705;-66
2023/05/05 03:01:02;;;;;;;7.60;1.65;;;;;;;17.89;67.74;101128.63;5057991;28;20761;-66
2023/05/05 03:04:05;;;;;;;10.18;2.03;;;;;;;17.75;68.73;101132.94;5057915;28;20488;-65
2023/05/05 03:06:58;;;;;;;11.02;1.85;;;;;;;17.53;69.05;101125.09;5088463;28;20078;-65
2023/05/05 03:09:52;;;;;;;6.18;1.60;;;;;;;17.63;69.12;101110.66;5058962;28;20068;-65
2023/05/05 03:12:45;;;;;;;9.50;1.92;;;;;;;17.17;69.81;101111.16;5062548;28;20051;-66
2023/05/05 03:15:50;;;;;;;11.32;2.00;;;;;;;16.90;71.75;101101.50;5060554;28;20523;-64
2023/05/05 03:18:41;;;;;;;12.95;2.25;;;;;;;17.37;71.15;101104.63;5071145;28;20068;-64
2023/05/05 03:21:31;;;;;;;13.40;2.13;;;;;;;17.54;70.54;101105.22;5064161;28;20056;-65
2023/05/05 03:24:20;;;;;;;9.65;2.35;;;;;;;17.44;70.24;101099.28;5076610;28;20055;-66
2023/05/05 03:27:16;;;;;;;10.40;2.40;;;;;;;17.51;69.39;101117.09;5064934;28;20062;-65
2023/05/05 03:30:04;;;;;;;8.05;1.80;;;;;;;17.58;70.68;101134.03;5075010;28;20059;-64
2023/05/05 03:32:53;;;;;;;;;;;;;;;17.45;69.96;101140.72;5078620;28;20051;-65
2023/05/05 03:35:41;;;;;;;11.45;2.20;;;;;;;17.40;70.19;101129.03;5078297;28;19924;-65
2023/05/05 03:38:31;;;;;;;9.55;2.05;;;;;;;17.54;70.38;101133.09;5058751;28;20400;-65
2023/05/05 03:41:21;;;;;;;9.40;1.85;;;;;;;17.20;71.11;101141.91;5056975;28;20384;-65
2023/05/05 03:44:09;;;;;;;10.43;2.10;;;;;;;16.95;71.35;101147.78;5072558;28;20060;-64
2023/05/05 03:46:57;;;;;;;12.65;2.63;;;;;;;17.35;71.50;101145.94;5056709;28;20045;-65
2023/05/05 03:49:45;;;;;;;10.50;2.15;;;;;;;17.17;71.63;101148.16;5044040;28;20052;-65
2023/05/05 03:52:33;;;;;;;10.45;1.90;;;;;;;16.91;71.59;101150.47;5057686;28;20079;-65
2023/05/05 03:55:21;;;;;;;9.25;1.63;;;;;;;17.27;71.68;101166.38;5066367;28;20075;-65
2023/05/05 03:58:09;;;;;;;9.60;2.03;;;;;;;17.09;71.40;101151.03;5077296;28;20059;-66
2023/05/05 04:00:57;;;;;;;12.75;2.03;;;;;;;17.27;71.80;101153.28;5094185;28;20509;-66
2023/05/05 04:03:45;;;;;;;11.80;2.70;;;;;;;17.04;71.46;101152.09;5096525;28;20052;-66
2023/05/05 04:06:32;;;;;;;13.48;2.22;;;;;;;17.16;71.42;101171.59;5095619;28;20052;-66
2023/05/05 04:09:21;;;;;;;11.10;2.15;;;;;;;17.10;71.98;101167.41;5092832;28;20044;-65
2023/05/05 04:12:13;;;;;;;9.77;2.13;;;;;;;17.26;72.13;101173.91;5077663;28;20044;-66
2023/05/05 04:15:00;;;;;;;10.07;2.55;;;;;;;16.58;73.82;101172.72;5061083;28;20060;-66
2023/05/05 04:17:48;;;;;;;6.93;1.98;;;;;;;16.63;74.40;101171.72;5060184;28;20041;-66
2023/05/05 04:20:36;;;;;;;9.43;2.10;;;;;;;16.67;73.99;101172.63;5061225;28;20064;-64
2023/05/05 04:23:24;;;;;;;11.75;2.15;;;;;;;16.65;75.06;101177.72;5064439;28;20052;-66
2023/05/05 04:26:12;;;;;;;10.57;2.58;;;;;;;16.71;74.25;101174.41;5094965;28;20047;-65
2023/05/05 04:29:00;;;;;;;13.75;2.45;;;;;;;16.83;74.43;101182.78;5080254;28;20051;-65
2023/05/05 04:31:48;;;;;;;14.07;2.58;;;;;;;16.67;75.18;101183.75;5060246;28;20060;-66
2023/05/05 04:34:37;;;;;;;12.32;2.90;;;;;;;17.01;74.27;101188.97;5062314;28;20052;-65
2023/05/05 04:37:25;;;;;;;13.77;2.60;;;;;;;17.08;74.57;101191.19;5074150;28;20380;-64
2023/05/05 04:40:12;;;;;;;12.60;2.80;;;;;;;17.02;73.92;101182.22;5079721;28;20044;-63
2023/05/05 04:43:01;;;;;;;12.77;2.45;;;;;;;17.03;75.43;101194.19;5095678;28;20055;-64
2023/05/05 04:45:52;;;;;;;14.43;2.50;;;;;;;17.17;75.16;101189.94;5079266;28;20150;-65
2023/05/05 04:48:42;;;;;;;13.32;2.10;;;;;;;17.12;75.25;101189.34;5077895;28;20055;-65
2023/05/05 04:51:31;;;;;;;8.52;2.35;;;;;;;16.77;76.14;101191.69;5094936;28;20056;-65
2023/05/05 04:54:18;;;;;;;11.07;2.30;;;;;;;17.09;76.31;101192.78;5093327;28;20594;-66
2023/05/05 04:57:06;;;;;;;13.00;2.42;;;;;;;16.66;77.67;101194.09;5074183;28;20507;-65
2023/05/05 04:59:55;;;;;;;10.23;2.10;;;;;;;16.32;79.12;101197.16;5060710;28;20048;-66
2023/05/05 05:02:42;;;;;;;14.63;3.03;;;;;;;16.65;79.50;101189.66;5077246;28;20736;-66
2023/05/05 05:05:30;;;;;;;11.07;2.33;;;;;;;16.62;78.80;101201.50;5080350;28;20053;-65
2023/05/05 05:08:18;;;;;;;14.32;2.22;;;;;;;16.69;78.61;101198.97;5072488;28;20060;-65
2023/05/05 05:11:05;;;;;;;17.77;2.70;;;;;;;16.87;78.13;101199.59;5074132;28;20176;-65
2023/05/05 05:13:53;;;;;;;8.82;2.42;;;;;;;16.52;79.99;101201.91;5072000;28;20056;-64
2023/05/05 05:16:41;;;;;;;10.30;2.17;;;;;;;16.70;79.70;101191.44;5073628;28;20063;-65
2023/05/05 05:19:28;;;;;;;16.50;2.97;;;;;;;16.99;78.49;101194.06;5057671;28;20060;-65
2023/05/05 05:22:16;;;;;;;13.35;2.45;;;;;;;16.68;79.69;101191.75;5068111;28;20468;-64
2023/05/05 05:25:04;;;;;;;11.77;2.65;;;;;;;16.47;81.25;101198.53;5063188;28;20055;-66
2023/05/05 05:27:53;;;;;;;10.98;2.70;;;;;;;16.28;82.88;101201.78;5072326;28;20048;-65
2023/05/05 05:30:58;;;;;;;14.93;3.13;;;;;;;16.11;84.06;101206.66;5051125;28;20052;-66
2023/05/05 05:33:46;;;;;;;12.98;2.60;;;;;;;16.08;85.04;101215.66;5028255;28;20057;-66
2023/05/05 05:36:34;;;;;;;12.40;2.40;;;;;;;16.36;83.37;101208.41;5038664;28;20048;-65
2023/05/05 05:39:22;;;;;;;14.43;2.70;;;;;;;16.32;83.81;101207.47;5068417;28;20049;-65
2023/05/05 05:42:10;;;;;;;11.90;2.70;;;;;;;16.14;84.42;101205.97;5074124;28;20130;-64
2023/05/05 05:44:57;;;;;;;11.55;2.72;;;;;;;16.12;84.94;101211.06;5084600;28;20055;-65
2023/05/05 05:47:45;;;;;;;12.25;3.08;;;;;;;16.12;85.45;101214.66;5055308;28;20052;-63
2023/05/05 05:50:34;;;;;;;13.00;2.67;;;;;;;16.46;84.80;101213.53;5038416;28;20068;-64
2023/05/05 05:53:22;;;;;;;10.27;2.70;;;;;;;16.41;84.06;101213.75;5061165;28;20053;-64
2023/05/05 05:56:10;;;;;;;10.05;2.40;;;;;;;16.75;82.44;101224.59;5054411;28;20051;-64
2023/05/05 05:58:58;;;;;;;10.38;2.55;;;;;;;16.57;81.96;101221.19;5048726;28;20398;-65
2023/05/05 06:01:45;;;;;;;11.38;2.20;;;;;;;16.88;82.31;101231.03;5066310;28;20384;-65
2023/05/05 06:04:33;;;;;;;10.90;2.80;;;;;;;16.81;81.58;101231.56;5047407;28;20044;-64
2023/05/05 06:07:21;;;;;;;11.73;2.72;;;;;;;16.75;82.43;101232.94;5071167;28;20048;-65
2023/05/05 06:10:09;;;;;;;11.77;2.65;;;;;;;16.64;82.89;101229.78;5038434;28;20538;-65
2023/05/05 06:13:18;;;;;;;13.27;2.58;;;;;;;16.83;82.02;101235.66;5052236;28;20312;-63
2023/05/05 06:16:09;;;;;;;8.73;2.20;;;;;;;16.94;81.43;101235.22;5064806;28;20052;-65
2023/05/05 06:18:59;;;;;;;6.85;1.58;;;;;;;16.70;81.17;101247.06;5066573;28;20056;-65
2023/05/05 06:21:47;;;;;;;10.05;2.00;;;;;;;16.64;81.94;101254.00;5073181;28;20059;-65
2023/05/05 06:24:34;;;;;;;10.88;2.00;;;;;;;16.63;82.13;101244.81;5071381;28;20060;-65
2023/05/05 06:27:23;;;;;;;10.02;2.88;;;;;;;16.41;83.51;101250.72;5049323;28;20411;-64
2023/05/05 06:30:11;;;;;;;11.45;2.53;;;;;;;16.58;82.61;101244.25;5072424;28;20056;-65
2023/05/05 06:32:58;;;;;;;17.88;3.15;;;;;;;16.52;83.36;101249.19;5066438;28;20052;-65
2023/05/05 06:35:48;;;;;;;8.23;2.20;;;;;;;16.74;82.17;101242.44;5058054;28;20048;-65
2023/05/05 06:38:35;;;;;;;10.48;2.47;;;;;;;16.49;82.60;101226.81;5073253;28;20063;-66
2023/05/05 06:41:23;;;;;;;17.63;3.25;;;;;;;16.34;83.09;101225.44;5058197;28;20432;-64
2023/05/05 06:44:11;;;;;;;10.68;2.72;;;;;;;16.39;83.25;101222.44;5071158;28;20056;-65
2023/05/05 06:46:58;;;;;;;13.43;2.35;;;;;;;16.39;84.03;101222.44;5072687;28;20492;-65
2023/05/05 06:49:46;;;;;;;10.75;2.33;;;;;;;16.47;83.96;101220.78;5068654;28;20049;-63
2023/05/05 06:52:33;;;;;;;11.93;2.90;;;;;;;16.61;83.29;101226.88;5070152;28;20357;-64
2023/05/05 06:55:22;;;;;;;10.27;1.98;;;;;;;16.33;83.70;101220.22;5056689;28;20056;-64
2023/05/05 06:58:10;;;;;;;12.80;2.47;;;;;;;16.64;84.02;101232.56;5041340;28;20057;-64
2023/05/05 07:00:58;;;;;;;13.40;3.00;;;;;;;16.68;83.00;101225.13;5051137;28;20048;-65
2023/05/05 07:03:45;;;;;;;12.00;2.47;;;;;;;16.95;82.82;101242.38;5074552;28;20067;-65
2023/05/05 07:06:33;;;;;;;10.75;2.75;;;;;;;16.74;81.92;101234.91;5047128;28;20636;-64
2023/05/05 07:09:20;;;;;;;13.38;2.40;;;;;;;17.02;82.07;101242.63;5062596;28;20052;-65
2023/05/05 07:12:08;;;;;;;10.75;2.10;;;;;;;17.43;80.60;101248.91;5061405;28;20049;-62
2023/05/05 07:14:55;;;;;;;7.80;2.20;;;;;;;17.72;78.37;101251.50;5050541;28;20393;-63
2023/05/05 07:17:43;;;;;;;11.40;3.30;;;;;;;17.65;80.22;101250.44;5049092;28;20636;-64
2023/05/05 07:20:31;;;;;;;11.43;2.45;;;;;;;17.63;79.70;101252.75;5060350;28;20064;-63
2023/05/05 07:23:18;;;;;;;17.20;3.05;;;;;;;17.93;80.81;101245.78;5058855;28;20063;-62
2023/05/05 07:26:06;;;;;;;13.73;2.50;;;;;;;18.06;79.41;101250.19;5058943;28;20044;-62
2023/05/05 07:28:57;;;;;;;20.77;2.50;;;;;;;18.05;78.32;101242.97;5046917;28;20065;-62
2023/05/05 07:31:45;;;;;;;11.88;2.53;;;;;;;18.01;77.78;101233.69;5061372;28;20040;-63
2023/05/05 07:34:33;;;;;;;10.48;2.67;;;;;;;18.06;77.63;101244.63;5060448;28;20060;-62
2023/05/05 07:37:21;;;;;;;13.02;2.75;;;;;;;18.16;76.87;101252.50;5070334;28;20075;-63
2023/05/05 07:40:09;;;;;;;15.05;2.60;;;;;;;18.26;75.59;101234.44;5051939;28;20048;-62
2023/05/05 07:42:57;;;;;;;14.70;3.15;;;;;;;18.17;75.78;101222.63;5066260;28;20053;-62
2023/05/05 07:45:45;;;;;;;12.07;2.50;;;;;;;18.16;75.88;101223.78;5045952;28;20056;-62
2023/05/05 07:48:32;;;;;;;12.88;2.45;;;;;;;17.51;76.56;101231.28;5062118;28;20045;-63
2023/05/05 07:51:20;;;;;;;9.05;2.28;;;;;;;17.85;76.93;101227.22;5050076;28;20456;-62
2023/05/05 07:54:07;;;;;;;9.13;2.33;;;;;;;18.03;75.84;101239.72;5063781;28;20049;-63
2023/05/05 07:56:56;;;;;;;9.52;2.30;;;;;;;18.09;75.19;101243.91;5052614;28;20184;-62
2023/05/05 07:59:43;;;;;;;10.75;2.60;;;;;;;18.30;74.58;101252.94;5067727;28;20075;-63
2023/05/05 08:02:31;;;;;;;9.02;2.20;;;;;;;18.22;75.29;101265.03;5062214;28;20508;-63
2023/05/05 08:05:18;;;;;;;10.38;2.22;;;;;;;18.50;74.46;101271.50;5047485;28;20076;-63
2023/05/05 08:08:06;;;;;;;14.63;2.58;;;;;;;18.68;73.53;101285.97;5060274;28;20052;-63
2023/05/05 08:10:54;;;;;;;9.23;2.33;;;;;;;18.81;72.91;101279.19;5058764;28;20064;-62
2023/05/05 08:13:42;;;;;;;8.45;2.50;;;;;;;18.76;72.77;101290.59;5051447;28;20036;-62
2023/05/05 08:16:29;;;;;;;8.95;1.85;;;;;;;18.79;72.02;101293.47;5037908;28;20044;-62
2023/05/05 08:19:18;;;;;;;11.38;2.00;;;;;;;18.61;71.81;101289.38;5066001;28;20053;-62
2023/05/05 08:22:17;;;;;;;10.43;2.00;;;;;;;18.73;71.98;101286.53;5053365;28;20495;-64
2023/05/05 08:25:05;;;;;;;6.35;1.70;;;;;;;18.23;71.26;101283.41;5064712;28;20055;-63
2023/05/05 08:27:53;;;;;;;7.95;1.90;;;;;;;18.20;72.34;101275.72;5066121;28;20052;-64
2023/05/05 08:30:41;;;;;;;10.50;2.60;;;;;;;18.35;72.19;101275.00;5065022;28;20052;-63
2023/05/05 08:33:29;;;;;;;5.55;1.60;;;;;;;18.38;71.65;101271.50;5060388;28;20056;-64
2023/05/05 08:36:16;;;;;;;7.35;1.77;;;;;;;18.31;70.35;101264.88;5066075;28;20492;-64
2023/05/05 08:39:04;;;;;;;5.88;1.65;;;;;;;18.60;71.04;101276.56;5044686;28;20052;-63
2023/05/05 08:41:52;;;;;;;7.13;2.28;;;;;;;18.96;69.64;101270.88;5062628;28;20393;-65
2023/05/05 08:44:40;;;;;;;7.93;1.58;;;;;;;18.98;68.14;101271.34;5069365;28;20060;-64
2023/05/05 08:47:27;;;;;;;7.68;1.80;;;;;;;18.96;68.39;101275.63;5064475;28;20048;-64
2023/05/05 08:50:16;;;;;;;9.43;2.10;;;;;;;18.87;68.42;101277.75;5041106;28;20053;-64
2023/05/05 08:53:15;;;;;;;11.50;1.80;;;;;;;18.87;68.49;101274.97;5054976;28;20056;-65
2023/05/05 08:56:03;;;;;;;7.57;1.40;;;;;;;18.56;68.40;101270.09;5045567;28;20052;-64
2023/05/05 08:58:51;;;;;;;8.80;1.80;;;;;;;18.48;67.95;101271.03;5058602;28;20064;-65
2023/05/05 09:01:40;;;;;;;7.75;1.70;;;;;;;18.82;67.98;101276.06;5051279;28;20052;-64
2023/05/05 09:04:28;;;;;;;4.83;1.30;;;;;;;19.32;66.69;101274.66;5058105;28;20401;-65
2023/05/05 09:07:16;;;;;;;5.30;1.25;;;;;;;19.35;65.30;101279.53;5051394;28;20472;-64
2023/05/05 09:10:04;;;;;;;6.15;1.23;;;;;;;19.40;65.15;101277.28;5064428;28;20051;-65
2023/05/05 09:12:52;;;;;;;5.80;1.70;;;;;;;19.29;65.32;101280.91;5070212;28;20048;-67
2023/05/05 09:15:40;;;;;;;6.43;1.40;;;;;;;19.51;64.73;101278.34;5064878;28;20067;-64
2023/05/05 09:18:28;;;;;;;16.33;6.80;;;;;;;19.85;63.59;101274.03;5066557;28;20052;-63
2023/05/05 09:21:26;;;;;;;11.43;5.40;;;;;;;19.88;62.73;101276.91;5060267;28;20056;-64
2023/05/05 09:24:14;;;;;;;6.68;2.30;;;;;;;19.96;62.25;101261.91;5045857;28;20041;-64
2023/05/05 09:27:20;;;;;;;10.85;6.32;;;;;;;19.82;61.32;101272.75;5055776;28;20064;-65
2023/05/05 09:30:09;;;;;;;12.90;4.85;;;;;;;19.97;61.69;101265.53;5053177;28;20056;-64
2023/05/05 09:32:56;;;;;;;4.65;1.08;;;;;;;19.87;60.50;101268.91;5063789;28;20512;-63
2023/05/05 09:35:54;;;;;;;4.68;1.67;;;;;;;20.12;60.03;101265.50;5067523;28;20052;-64
2023/05/05 09:39:03;;;;;;;5.55;1.90;;;;;;;20.08;59.92;101255.41;5066689;28;20066;-63
2023/05/05 09:41:50;;;;;;;4.60;1.60;;;;;;;20.06;59.74;101254.97;5068569;28;20041;-63
2023/05/05 09:44:39;;;;;;;6.65;1.33;;;;;;;19.94;59.04;101253.09;5063085;28;20057;-63
2023/05/05 09:47:34;;;;;;;7.75;1.35;;;;;;;19.95;59.66;101253.91;5062821;28;20539;-63
2023/05/05 09:50:22;;;;;;;8.00;1.60;;;;;;;20.17;59.93;101244.06;5050330;28;20055;-64
2023/05/05 09:53:10;;;;;;;4.93;1.40;;;;;;;20.29;59.01;101239.16;5071134;28;20056;-64
2023/05/05 09:55:59;;;;;;;7.65;3.20;;;;;;;20.11;58.56;101241.53;5061332;28;20056;-62
2023/05/05 09:58:47;;;;;;;6.53;2.88;;;;;;;20.10;57.90;101239.88;5069282;28;20056;-65
2023/05/05 10:01:35;;;;;;;6.28;2.42;;;;;;;20.22;58.25;101227.81;5064351;28;20841;-64
2023/05/05 10:04:27;;;;;;;18.50;6.53;;;;;;;20.35;57.96;101220.06;5039136;28;20441;-65
2023/05/05 10:07:23;;;;;;;9.20;4.50;;;;;;;20.53;57.67;101215.66;5061677;28;20045;-64
2023/05/05 10:10:13;;;;;;;4.43;1.60;;;;;;;20.37;56.90;101215.75;5065457;28;20060;-64
2023/05/05 10:13:01;;;;;;;7.15;1.85;;;;;;;20.44;56.58;101213.09;5043309;28;20056;-64
2023/05/05 10:15:51;;;;;;;6.25;2.03;;;;;;;20.48;56.69;101205.59;5061265;28;20059;-65
2023/05/05 10:18:41;;;;;;;6.63;1.50;;;;;;;20.64;56.59;101199.91;5051541;28;20791;-63
2023/05/05 10:21:33;;;;;;;4.15;1.40;;;;;;;20.93;55.29;101200.09;5068462;28;20060;-63
2023/05/05 10:24:26;;;;;;;4.60;1.30;;;;;;;20.82;55.35;101206.66;5039216;28;20049;-64
2023/05/05 10:27:17;;;;;;;6.13;2.22;;;;;;;20.68;56.03;101197.97;5069954;28;20526;-64
2023/05/05 10:30:06;;;;;;;12.65;3.83;;;;;;;20.73;56.22;101195.69;5063307;28;20060;-63
2023/05/05 10:33:02;;;;;;;7.50;3.05;;;;;;;21.01;54.89;101195.44;5049602;28;20052;-63
2023/05/05 10:36:09;;;;;;;13.57;8.20;;;;;;;20.91;54.91;101205.25;5065516;28;20570;-65
2023/05/05 10:38:58;;;;;;;5.93;2.83;;;;;;;20.67;54.64;101201.97;5066335;28;20172;-63
2023/05/05 10:41:47;;;;;;;5.88;2.30;;;;;;;20.63;56.06;101195.47;5052763;28;20048;-65
2023/05/05 10:44:35;;;;;;;4.35;1.65;;;;;;;20.92;54.94;101192.84;5065148;28;20773;-63
2023/05/05 10:47:23;;;;;;;4.32;1.92;;;;;;;20.84;55.32;101184.69;5038331;28;20068;-65
2023/05/05 10:50:27;;;;;;;6.00;1.85;;;;;;;21.02;54.99;101178.28;5040452;28;20051;-63
2023/05/05 10:53:21;;;;;;;4.82;1.80;;;;;;;21.21;53.83;101178.22;5033592;28;20045;-63
2023/05/05 10:56:16;;;;;;;4.85;1.67;;;;;;;21.25;53.27;101181.88;5059209;28;20064;-63
2023/05/05 10:59:35;;;;;;;5.82;1.48;;;;;;;21.17;53.44;101182.94;5064255;28;20052;-64
2023/05/05 11:02:27;;;;;;;9.35;5.47;;;;;;;21.32;53.66;101178.41;5053533;28;20049;-64
2023/05/05 11:05:22;;;;;;;8.90;4.95;;;;;;;21.50;53.53;101179.50;5067820;28;20377;-63
2023/05/05 11:08:25;;;;;;;7.07;3.25;;;;;;;21.60;52.78;101166.84;5058872;28;20470;-63
2023/05/05 11:11:13;;;;;;;7.35;2.80;;;;;;;21.51;53.44;101164.31;5051419;28;20053;-64
2023/05/05 11:14:21;;;;;;;10.05;4.60;;;;;;;21.85;52.76;101149.22;5058549;28;20055;-65
2023/05/05 11:17:45;;;;;;;8.50;4.10;;;;;;;21.69;52.64;101151.38;5062451;28;20614;-63
2023/05/05 11:20:35;;;;;;;7.07;2.00;;;;;;;21.58;53.42;101153.22;5068751;28;20799;-62
2023/05/05 11:23:24;;;;;;;4.57;1.95;;;;;;;21.34;53.55;101148.00;5067984;28;20049;-63
2023/05/05 11:26:12;;;;;;;13.80;10.45;;;;;;;21.20;54.30;101154.19;5058169;28;20056;-64
2023/05/05 11:29:02;;;;;;;6.85;2.40;;;;;;;21.25;54.06;101153.06;5057944;28;20544;-62
2023/05/05 11:32:13;;;;;;;7.93;2.17;;;;;;;21.15;54.37;101150.88;5061611;28;20044;-62
2023/05/05 11:35:01;;;;;;;5.70;2.00;;;;;;;20.99;55.83;101141.81;5056763;28;20056;-62
2023/05/05 11:38:02;;;;;;;5.50;1.50;;;;;;;20.99;56.01;101147.41;5073596;28;20059;-63
2023/05/05 11:40:52;;;;;;;8.93;2.40;;;;;;;21.23;55.94;101139.41;5069871;28;20063;-63
2023/05/05 11:43:40;;;;;;;5.72;1.70;;;;;;;21.14;55.27;101138.06;5063130;28;20044;-63
2023/05/05 11:46:28;;;;;;;5.88;2.10;;;;;;;21.22;55.49;101142.59;5070926;28;20048;-62
2023/05/05 11:49:29;;;;;;;6.97;1.83;;;;;;;21.44;54.29;101136.16;5055294;28;20557;-62
2023/05/05 11:52:16;;;;;;;7.45;3.90;;;;;;;21.35;53.44;101137.59;5066141;28;20071;-62
2023/05/05 11:55:04;;;;;;;9.68;5.30;;;;;;;21.48;52.71;101131.41;5057614;28;20059;-62
2023/05/05 11:57:52;;;;;;;10.00;3.90;;;;;;;21.46;52.66;101119.78;5068967;28;20048;-63
2023/05/05 12:00:40;;;;;;;6.68;2.47;;;;;;;21.51;52.23;101127.06;5058354;28;20059;-62
2023/05/05 12:03:33;;;;;;;5.70;2.63;;;;;;;21.21;52.73;101115.78;5066724;28;20045;-65
2023/05/05 12:06:21;;;;;;;6.88;2.85;;;;;;;21.48;52.01;101114.59;5066475;28;20052;-63
2023/05/05 12:09:16;;;;;;;5.18;1.60;;;;;;;21.47;49.84;101104.56;5063139;28;20057;-62
2023/05/05 12:12:03;;;;;;;8.23;1.75;;;;;;;21.52;50.71;101109.03;5067446;28;20071;-62
2023/05/05 12:14:51;;;;;;;4.55;1.27;;;;;;;21.59;50.90;101104.34;5055461;28;20041;-62
2023/05/05 12:17:41;;;;;;;7.72;2.00;;;;;;;21.69;50.23;101114.91;5055398;28;20067;-63
2023/05/05 12:20:31;;;;;;;4.63;1.58;;;;;;;21.78;51.50;101107.06;5062708;28;20056;-61
2023/05/05 12:23:19;;;;;;;8.80;2.30;;;;;;;21.75;50.09;101101.38;5065539;28;20051;-62
2023/05/05 12:26:07;;;;;;;6.68;2.15;;;;;;;21.62;49.21;101103.59;5055569;28;20057;-62
2023/05/05 12:28:59;;;;;;;6.25;1.88;;;;;;;21.50;50.44;101095.41;5058780;28;20570;-62
2023/05/05 12:31:47;;;;;;;5.82;2.20;;;;;;;21.86;49.33;101089.13;5052809;28;20064;-61
2023/05/05 12:34:35;;;;;;;7.18;1.10;;;;;;;22.12;48.91;101088.28;5069525;28;20503;-62
2023/05/05 12:37:24;;;;;;;4.57;1.35;;;;;;;22.43;47.99;101076.59;5062808;28;20488;-62
2023/05/05 12:40:45;;;;;;;7.20;1.77;;;;;;;22.64;46.26;101079.66;5065217;28;20057;-62
2023/05/05 12:43:34;;;;;;;5.07;1.20;;;;;;;22.72;44.92;101074.91;5067310;28;20115;-62
2023/05/05 12:46:22;;;;;;;6.20;1.23;;;;;;;22.82;44.61;101068.59;5060332;28;20057;-62
2023/05/05 12:49:09;;;;;;;5.03;1.10;;;;;;;23.01;43.76;101063.53;5055402;28;20377;-63
2023/05/05 12:51:57;;;;;;;5.65;1.00;;;;;;;22.62;43.61;101067.19;5063234;28;20821;-61
2023/05/05 12:54:55;;;;;;;7.18;1.08;;;;;;;22.64;43.68;101071.25;5069043;28;20841;-62
2023/05/05 12:58:00;;;;;;;9.23;1.70;;;;;;;23.08;42.72;101074.84;5070893;28;20049;-63
2023/05/05 13:01:07;;;;;;;3.85;1.20;;;;;;;23.00;43.28;101073.19;5052710;28;20044;-63
2023/05/05 13:04:11;;;;;;;4.38;1.02;;;;;;;23.14;43.82;101058.44;5063318;28;20041;-62
2023/05/05 13:07:15;;;;;;;3.03;1.15;;;;;;;23.25;43.11;101064.94;5048944;28;20040;-63
2023/05/05 13:10:10;;;;;;;3.85;1.10;;;;;;;23.09;42.87;101053.16;5065136;28;20072;-62